Time;durP1;ratioP1;P1;durP2;ratioP2;P2;SDS_P1;SDS_P2;PMS_P1;PMS_P2;Temp;Humidity;BMP_temperature;BMP_pressure;BME280_temperature;BME280_humidity;BME280_pressure;Samples;Min_cycle;Max_cycle;Signal;HPM_P1;HPM_P2
2021/12/29 00:01:25;;;;;;;0.55;0.10;;;;;;;15.22;59.79;97882.22;3152789;28;20489;-85
2021/12/29 00:03:00;;;;;;;0.45;0.30;;;;;;;15.19;59.83;97886.94;3155783;28;20036;-85
2021/12/29 00:04:32;;;;;;;0.08;0.08;;;;;;;15.18;59.73;97881.78;3153815;28;20127;-82
2021/12/29 00:06:04;;;;;;;0.35;0.30;;;;;;;15.18;59.86;97881.78;3154557;28;20131;-85
2021/12/29 00:07:37;;;;;;;0.30;0.30;;;;;;;15.16;59.72;97875.84;3153870;28;20048;-85
2021/12/29 00:09:10;;;;;;;0.30;0.28;;;;;;;15.15;59.76;97874.16;3154796;28;20299;-81
2021/12/29 00:10:41;;;;;;;0.70;0.68;;;;;;;15.15;59.93;97880.31;3154334;28;20460;-84
2021/12/29 00:12:14;;;;;;;0.20;0.20;;;;;;;15.14;59.82;97880.53;3153449;28;20059;-83
2021/12/29 00:13:46;;;;;;;0.22;0.22;;;;;;;15.13;59.73;97887.75;3154084;28;20048;-85
2021/12/29 00:15:19;;;;;;;0.20;0.20;;;;;;;15.12;59.84;97885.25;3153669;28;20063;-81
2021/12/29 00:16:52;;;;;;;0.10;0.10;;;;;;;15.13;59.86;97881.59;3141994;28;20040;-84
2021/12/29 00:18:25;;;;;;;0.32;0.13;;;;;;;15.09;59.80;97875.78;3140015;28;20049;-83
2021/12/29 00:19:56;;;;;;;0.20;0.05;;;;;;;15.08;59.81;97871.47;3141605;28;20135;-84
2021/12/29 00:21:29;;;;;;;0.30;0.30;;;;;;;15.07;59.85;97880.53;3140898;28;20045;-81
2021/12/29 00:23:07;;;;;;;0.10;0.10;;;;;;;15.07;59.77;97883.19;3142234;28;20043;-85
2021/12/29 00:24:39;;;;;;;0.20;0.20;;;;;;;15.05;59.88;97887.09;3141524;28;20076;-85
2021/12/29 00:26:13;;;;;;;0.03;0.00;;;;;;;15.05;59.95;97884.41;3142192;28;20051;-81
2021/12/29 00:27:45;;;;;;;0.65;0.35;;;;;;;15.03;59.79;97881.13;3141519;28;20275;-84
2021/12/29 00:29:17;;;;;;;0.32;0.28;;;;;;;15.03;59.82;97886.47;3141511;28;20051;-83
2021/12/29 00:30:49;;;;;;;0.20;0.20;;;;;;;15.01;60.14;97891.97;3143502;28;20105;-84
2021/12/29 00:32:21;;;;;;;0.75;0.40;;;;;;;15.01;59.79;97883.16;3138933;28;20041;-85
2021/12/29 00:33:53;;;;;;;0.20;0.20;;;;;;;14.98;59.80;97882.50;3141605;28;20056;-85
2021/12/29 00:35:25;;;;;;;0.30;0.30;;;;;;;14.99;59.94;97891.38;3140781;28;20045;-84
2021/12/29 00:36:59;;;;;;;0.10;0.10;;;;;;;14.98;59.94;97884.38;3142947;28;20041;-84
2021/12/29 00:38:32;;;;;;;0.20;0.20;;;;;;;14.96;59.99;97879.25;3140005;28;20056;-85
2021/12/29 00:40:04;;;;;;;0.43;0.25;;;;;;;14.97;59.84;97882.72;3141488;28;20057;-84
2021/12/29 00:41:36;;;;;;;0.10;0.10;;;;;;;14.95;59.86;97879.44;3141788;28;20085;-82
2021/12/29 00:43:08;;;;;;;0.10;0.10;;;;;;;14.94;59.84;97886.63;3142547;28;20051;-83
2021/12/29 00:44:39;;;;;;;0.45;0.13;;;;;;;14.93;59.88;97890.31;3141317;28;20052;-82
2021/12/29 00:46:12;;;;;;;0.20;0.20;;;;;;;14.93;59.90;97887.66;3140473;28;20044;-85
2021/12/29 00:47:44;;;;;;;0.70;0.10;;;;;;;14.91;60.02;97884.34;3139198;28;20674;-83
2021/12/29 00:49:16;;;;;;;0.00;0.00;;;;;;;14.89;59.96;97889.06;3140506;28;20090;-84
2021/12/29 00:50:49;;;;;;;0.20;0.20;;;;;;;14.89;60.01;97902.41;3138512;28;20051;-85
2021/12/29 00:52:20;;;;;;;0.20;0.20;;;;;;;14.89;59.83;97899.75;3140586;28;20499;-85
2021/12/29 00:53:54;;;;;;;0.20;0.10;;;;;;;14.89;60.03;97899.75;3141533;28;20120;-85
2021/12/29 00:55:26;;;;;;;0.20;0.20;;;;;;;14.89;60.16;97907.75;3138970;28;20055;-84
2021/12/29 00:56:57;;;;;;;0.22;0.10;;;;;;;14.89;60.22;97907.75;3141790;28;20048;-81
2021/12/29 00:58:29;;;;;;;0.10;0.10;;;;;;;14.88;60.12;97902.63;3137515;28;20499;-85
2021/12/29 01:00:01;;;;;;;0.28;0.20;;;;;;;14.87;60.03;97915.13;3141507;28;20040;-84
2021/12/29 01:01:33;;;;;;;1.08;0.22;;;;;;;14.87;60.13;97920.47;3138856;28;20052;-85
2021/12/29 01:03:06;;;;;;;0.20;0.20;;;;;;;14.87;59.88;97917.78;3140758;28;20060;-82
2021/12/29 01:04:38;;;;;;;0.25;0.20;;;;;;;14.85;59.92;97917.19;3139680;28;20044;-84
2021/12/29 01:06:10;;;;;;;0.40;0.25;;;;;;;14.84;60.16;97909.34;3139547;28;20083;-82
2021/12/29 01:07:44;;;;;;;0.20;0.15;;;;;;;14.82;60.10;97906.91;3140750;28;20423;-84
2021/12/29 01:09:17;;;;;;;0.10;0.10;;;;;;;14.82;60.19;97909.56;3141481;28;20504;-84
2021/12/29 01:10:50;;;;;;;0.20;0.20;;;;;;;14.82;60.13;97906.91;3141919;28;20040;-85
2021/12/29 01:12:22;;;;;;;0.20;0.20;;;;;;;14.82;60.29;97904.22;3140662;28;20048;-82
2021/12/29 01:13:54;;;;;;;0.20;0.20;;;;;;;14.80;60.13;97911.59;3140812;28;20055;-84
2021/12/29 01:15:32;;;;;;;0.20;0.20;;;;;;;14.80;60.09;97911.59;3139924;28;20044;-84
2021/12/29 01:17:04;;;;;;;0.30;0.10;;;;;;;14.80;59.95;97914.28;3141079;28;20067;-84
2021/12/29 01:18:38;;;;;;;0.30;0.22;;;;;;;14.79;60.11;97912.59;3142479;28;20566;-84
2021/12/29 01:20:11;;;;;;;0.30;0.20;;;;;;;14.79;60.18;97914.47;3140379;28;20040;-82
2021/12/29 01:21:46;;;;;;;0.20;0.15;;;;;;;14.78;60.09;97910.97;3140946;28;20052;-84
2021/12/29 01:23:18;;;;;;;0.10;0.10;;;;;;;14.78;60.22;97918.97;3141201;28;20422;-84
2021/12/29 01:24:52;;;;;;;0.38;0.10;;;;;;;14.77;60.26;97919.19;3139714;28;20657;-84
2021/12/29 01:26:22;;;;;;;0.22;0.22;;;;;;;14.76;60.09;97918.34;3141201;28;20056;-84
2021/12/29 01:27:54;;;;;;;0.23;0.23;;;;;;;14.75;60.08;97919.38;3139791;28;20052;-85
2021/12/29 01:29:28;;;;;;;0.10;0.10;;;;;;;14.74;60.11;97926.56;3139626;28;20301;-82
2021/12/29 01:31:01;;;;;;;0.32;0.20;;;;;;;14.74;60.21;97915.06;3141685;28;20040;-81
2021/12/29 01:32:33;;;;;;;0.38;0.15;;;;;;;14.74;59.92;97915.06;3140488;28;20056;-84
2021/12/29 01:34:05;;;;;;;0.10;0.10;;;;;;;14.72;60.11;97903.75;3139435;28;20049;-84
2021/12/29 01:35:38;;;;;;;0.20;0.20;;;;;;;14.71;60.17;97900.25;3139427;28;20106;-83
2021/12/29 01:37:10;;;;;;;0.10;0.10;;;;;;;14.71;60.34;97902.94;3140603;28;20044;-84
2021/12/29 01:38:41;;;;;;;0.28;0.20;;;;;;;14.72;60.24;97907.25;3142040;28;20045;-84
2021/12/29 01:40:17;;;;;;;0.30;0.30;;;;;;;14.70;60.32;97908.44;3141521;28;20459;-84
2021/12/29 01:41:52;;;;;;;0.55;0.20;;;;;;;14.71;60.19;97904.78;3140553;28;20055;-84
2021/12/29 01:43:24;;;;;;;0.17;0.17;;;;;;;14.71;60.32;97910.13;3138934;28;20048;-82
2021/12/29 01:44:55;;;;;;;0.30;0.13;;;;;;;14.70;60.20;97908.44;3141059;28;20600;-82
2021/12/29 01:46:27;;;;;;;0.22;0.17;;;;;;;14.71;60.34;97910.13;3139198;28;20055;-83
2021/12/29 01:48:00;;;;;;;0.17;0.17;;;;;;;14.70;60.26;97911.94;3140341;28;20609;-84
2021/12/29 01:49:32;;;;;;;0.88;0.10;;;;;;;14.69;60.13;97907.63;3139779;28;20519;-81
2021/12/29 01:51:03;;;;;;;0.10;0.10;;;;;;;14.69;60.08;97909.47;3140129;28;20052;-85
2021/12/29 01:52:38;;;;;;;0.10;0.10;;;;;;;14.69;60.32;97901.47;3140518;28;20492;-84
2021/12/29 01:54:15;;;;;;;0.10;0.10;;;;;;;14.68;60.36;97895.31;3140853;28;20060;-84
2021/12/29 01:55:49;;;;;;;0.30;0.15;;;;;;;14.67;60.21;97893.66;3140394;28;20052;-83
2021/12/29 01:57:22;;;;;;;0.30;0.22;;;;;;;14.68;60.23;97894.47;3139037;28;20041;-83
2021/12/29 01:58:53;;;;;;;0.10;0.10;;;;;;;14.67;60.17;97884.81;3141211;28;20422;-84
2021/12/29 02:00:29;;;;;;;0.22;0.22;;;;;;;14.67;60.45;97892.84;3137112;28;20500;-83
2021/12/29 02:02:01;;;;;;;0.45;0.13;;;;;;;14.66;60.34;97904.53;3139717;28;20044;-84
2021/12/29 02:03:33;;;;;;;0.10;0.10;;;;;;;14.66;60.22;97896.53;3139534;28;20043;-84
2021/12/29 02:05:04;;;;;;;0.10;0.10;;;;;;;14.65;60.28;97900.19;3140058;28;20049;-84
2021/12/29 02:06:37;;;;;;;0.10;0.10;;;;;;;14.65;60.22;97900.19;3140233;28;20056;-83
2021/12/29 02:08:10;;;;;;;0.10;0.10;;;;;;;14.64;60.26;97904.72;3138916;28;20048;-84
2021/12/29 02:09:43;;;;;;;0.10;0.10;;;;;;;14.64;60.21;97898.56;3141190;28;20056;-84
2021/12/29 02:11:16;;;;;;;0.30;0.28;;;;;;;14.63;60.10;97905.75;3139756;28;20060;-84
2021/12/29 02:12:49;;;;;;;0.10;0.10;;;;;;;14.64;60.19;97914.59;3139688;28;20054;-84
2021/12/29 02:14:21;;;;;;;0.20;0.10;;;;;;;14.61;60.26;97910.44;3139457;28;20044;-84
2021/12/29 02:15:52;;;;;;;0.30;0.17;;;;;;;14.62;60.21;97914.75;3141054;28;20434;-84
2021/12/29 02:17:24;;;;;;;0.45;0.20;;;;;;;14.61;60.22;97909.63;3138093;28;20420;-82
2021/12/29 02:18:59;;;;;;;0.13;0.10;;;;;;;14.61;60.33;97914.97;3139052;28;20131;-82
2021/12/29 02:20:31;;;;;;;0.60;0.25;;;;;;;14.60;60.28;97907.97;3140746;28;20044;-81
2021/12/29 02:22:09;;;;;;;0.10;0.10;;;;;;;14.61;60.51;97905.13;3141795;28;20290;-84
2021/12/29 02:23:56;;;;;;;0.30;0.22;;;;;;;14.62;60.32;97916.63;3139974;28;20431;-84
2021/12/29 02:25:46;;;;;;;0.40;0.28;;;;;;;14.61;60.50;97905.13;3139364;28;20048;-84
2021/12/29 02:27:18;;;;;;;0.10;0.10;;;;;;;14.61;60.35;97898.97;3141093;28;20264;-85
2021/12/29 02:28:50;;;;;;;0.00;0.00;;;;;;;14.61;60.33;97904.28;3140511;28;20064;-84
2021/12/29 02:30:24;;;;;;;0.20;0.20;;;;;;;14.61;60.50;97905.13;3138424;28;20199;-85
2021/12/29 02:31:56;;;;;;;0.20;0.20;;;;;;;14.60;60.47;97900.81;3141321;28;20047;-84
2021/12/29 02:33:30;;;;;;;0.65;0.15;;;;;;;14.60;60.41;97906.16;3140042;28;20049;-84
2021/12/29 02:35:02;;;;;;;0.20;0.20;;;;;;;14.59;60.53;97907.16;3139642;28;20037;-83
2021/12/29 02:36:36;;;;;;;0.17;0.10;;;;;;;14.58;60.36;97905.50;3143668;28;20318;-84
2021/12/29 02:38:12;;;;;;;0.30;0.30;;;;;;;14.58;60.35;97899.34;3143750;28;20044;-84
2021/12/29 02:39:43;;;;;;;0.10;0.10;;;;;;;14.58;60.36;97907.34;3142525;28;20055;-83
2021/12/29 02:41:16;;;;;;;0.10;0.10;;;;;;;14.57;60.37;97913.69;3144128;28;20165;-84
2021/12/29 02:42:47;;;;;;;0.20;0.15;;;;;;;14.57;60.35;97911.88;3143314;28;20056;-83
2021/12/29 02:44:25;;;;;;;0.17;0.10;;;;;;;14.57;60.25;97927.88;3141271;28;20071;-84
2021/12/29 02:45:59;;;;;;;0.60;0.20;;;;;;;14.57;60.28;97925.22;3142768;28;20052;-84
2021/12/29 02:47:31;;;;;;;0.28;0.28;;;;;;;14.56;60.31;97923.56;3151096;28;20075;-84
2021/12/29 02:49:03;;;;;;;0.10;0.08;;;;;;;14.56;60.32;97917.41;3142696;28;20106;-83
2021/12/29 02:50:35;;;;;;;0.10;0.10;;;;;;;14.56;60.34;97917.41;3139470;28;20408;-85
2021/12/29 02:52:10;;;;;;;0.17;0.10;;;;;;;14.56;60.41;97912.06;3142978;28;20045;-82
2021/12/29 02:53:42;;;;;;;0.20;0.20;;;;;;;14.55;60.38;97911.25;3143051;28;20934;-85
2021/12/29 02:55:15;;;;;;;0.35;0.20;;;;;;;14.55;60.37;97907.75;3142003;28;20044;-83
2021/12/29 02:56:48;;;;;;;0.40;0.30;;;;;;;14.55;60.25;97910.41;3140393;28;20053;-84
2021/12/29 02:58:20;;;;;;;0.20;0.20;;;;;;;14.55;60.31;97905.09;3138830;28;20113;-85
2021/12/29 02:59:52;;;;;;;0.10;0.10;;;;;;;14.55;60.43;97913.09;3141299;28;20319;-83
2021/12/29 03:01:26;;;;;;;0.20;0.20;;;;;;;14.55;60.41;97905.09;3139619;28;20048;-84
2021/12/29 03:02:57;;;;;;;0.10;0.10;;;;;;;14.53;60.62;97903.41;3140456;28;20074;-83
2021/12/29 03:04:32;;;;;;;0.22;0.10;;;;;;;14.56;60.41;97920.06;3139797;28;20431;-83
2021/12/29 03:06:04;;;;;;;0.28;0.20;;;;;;;14.55;60.43;97911.25;3137539;28;20181;-85
2021/12/29 03:07:38;;;;;;;0.38;0.30;;;;;;;14.55;60.43;97907.75;3141070;28;20415;-84
2021/12/29 03:09:12;;;;;;;0.20;0.10;;;;;;;14.53;60.46;97903.41;3139888;28;20076;-84
2021/12/29 03:10:44;;;;;;;0.85;0.20;;;;;;;14.53;60.22;97895.41;3139932;28;20048;-85
2021/12/29 03:12:16;;;;;;;0.15;0.15;;;;;;;14.54;60.44;97893.56;3139575;28;20083;-85
2021/12/29 03:13:48;;;;;;;0.20;0.15;;;;;;;14.53;60.26;97889.25;3140946;28;20060;-82
2021/12/29 03:15:23;;;;;;;0.55;0.45;;;;;;;14.53;60.30;97890.06;3138987;28;20135;-85
2021/12/29 03:16:55;;;;;;;0.20;0.20;;;;;;;14.54;60.39;97898.91;3142530;28;20052;-85
2021/12/29 03:18:25;;;;;;;0.20;0.20;;;;;;;14.53;60.26;97898.06;3141400;28;20545;-81
2021/12/29 03:19:57;;;;;;;0.17;0.10;;;;;;;14.52;60.52;97895.63;3140061;28;20083;-83
2021/12/29 03:21:30;;;;;;;0.20;0.10;;;;;;;14.53;60.32;97899.94;3136978;28;20041;-85
2021/12/29 03:23:03;;;;;;;0.00;0.00;;;;;;;14.52;60.46;97896.44;3141383;28;20230;-85
2021/12/29 03:24:35;;;;;;;0.10;0.10;;;;;;;14.52;60.22;97898.28;3142303;28;20041;-85
2021/12/29 03:26:07;;;;;;;0.15;0.10;;;;;;;14.52;60.37;97901.78;3141690;28;20052;-82
2021/12/29 03:27:38;;;;;;;0.17;0.17;;;;;;;14.50;60.38;97892.28;3142051;28;20140;-85
2021/12/29 03:29:10;;;;;;;0.10;0.10;;;;;;;14.51;60.38;97901.94;3139586;28;20052;-85
2021/12/29 03:30:45;;;;;;;0.15;0.15;;;;;;;14.50;60.52;97909.13;3141917;28;20500;-85
2021/12/29 03:32:33;;;;;;;0.10;0.10;;;;;;;14.52;60.41;97909.78;3141371;28;20060;-84
2021/12/29 03:34:06;;;;;;;0.20;0.10;;;;;;;14.51;60.29;97915.28;3152354;28;20415;-84
2021/12/29 03:35:39;;;;;;;0.65;0.30;;;;;;;14.53;60.55;97913.28;3152826;28;20044;-85
2021/12/29 03:37:11;;;;;;;0.20;0.10;;;;;;;14.52;60.28;97911.63;3151476;28;20146;-85
2021/12/29 03:38:44;;;;;;;0.05;0.05;;;;;;;14.52;60.43;97909.78;3153344;28;20109;-84
2021/12/29 03:40:16;;;;;;;1.30;0.30;;;;;;;14.53;60.50;97908.75;3153376;28;20055;-82
2021/12/29 03:41:48;;;;;;;0.10;0.10;;;;;;;14.52;60.32;97901.78;3153268;28;20581;-85
2021/12/29 03:43:21;;;;;;;0.20;0.10;;;;;;;14.53;60.52;97908.75;3154073;28;20477;-85
2021/12/29 03:44:52;;;;;;;0.63;0.28;;;;;;;14.53;60.44;97906.09;3140196;28;20040;-83
2021/12/29 03:46:26;;;;;;;0.15;0.10;;;;;;;14.54;60.43;97901.56;3141185;28;20067;-83
2021/12/29 03:47:58;;;;;;;0.00;0.00;;;;;;;14.54;60.50;97898.91;3142062;28;20109;-82
2021/12/29 03:49:29;;;;;;;0.03;0.03;;;;;;;14.53;60.35;97902.59;3140561;28;20040;-85
2021/12/29 03:51:02;;;;;;;0.03;0.00;;;;;;;14.55;60.39;97915.75;3143388;28;20040;-85
2021/12/29 03:52:34;;;;;;;0.35;0.20;;;;;;;14.54;60.50;97912.25;3142861;28;20578;-84
2021/12/29 03:54:07;;;;;;;0.10;0.10;;;;;;;14.53;60.34;97911.41;3142856;28;20102;-84
2021/12/29 03:55:39;;;;;;;0.40;0.10;;;;;;;14.52;60.32;97915.13;3143330;28;20462;-83
2021/12/29 03:57:14;;;;;;;0.10;0.10;;;;;;;14.52;60.52;97924.97;3143696;28;20049;-85
2021/12/29 03:58:46;;;;;;;0.10;0.10;;;;;;;14.51;60.57;97915.28;3143703;28;20047;-82
2021/12/29 04:00:20;;;;;;;0.20;0.20;;;;;;;14.51;60.44;97901.94;3141204;28;20048;-84
2021/12/29 04:01:52;;;;;;;0.15;0.15;;;;;;;14.49;60.47;97910.16;3143250;28;20048;-85
2021/12/29 04:03:23;;;;;;;0.17;0.10;;;;;;;14.52;60.31;97906.28;3142959;28;20645;-84
2021/12/29 04:04:55;;;;;;;0.22;0.20;;;;;;;14.50;60.46;97898.44;3144339;28;20247;-82
2021/12/29 04:06:27;;;;;;;0.10;0.10;;;;;;;14.51;60.50;97899.25;3142112;28;20044;-85
2021/12/29 04:07:59;;;;;;;0.10;0.10;;;;;;;14.49;60.35;97902.13;3144248;28;20044;-82
2021/12/29 04:09:32;;;;;;;0.50;0.20;;;;;;;14.50;60.62;97903.78;3141347;28;20044;-85
2021/12/29 04:11:04;;;;;;;0.32;0.17;;;;;;;14.51;60.48;97904.59;3143730;28;20948;-85
2021/12/29 04:12:35;;;;;;;0.22;0.10;;;;;;;14.50;60.40;97898.44;3143339;28;20049;-85
2021/12/29 04:14:07;;;;;;;0.10;0.10;;;;;;;14.50;60.39;97889.63;3144771;28;20052;-84
2021/12/29 04:15:39;;;;;;;0.52;0.17;;;;;;;14.50;60.28;97893.09;3144610;28;20098;-85
2021/12/29 04:17:12;;;;;;;0.17;0.17;;;;;;;14.50;60.40;97903.78;3143291;28;20127;-85
2021/12/29 04:18:55;;;;;;;0.20;0.10;;;;;;;14.52;60.36;97900.97;3146424;28;20496;-84
2021/12/29 04:22:19;;;;;;;0.00;0.00;;;;;;;14.53;60.33;97903.41;3142240;28;20045;-85
2021/12/29 04:23:52;;;;;;;0.20;0.20;;;;;;;14.53;60.55;97895.41;3141449;28;20049;-84
2021/12/29 04:25:25;;;;;;;0.20;0.20;;;;;;;14.54;60.41;97896.22;3140593;28;20048;-85
2021/12/29 04:26:57;;;;;;;0.22;0.22;;;;;;;14.54;60.50;97898.91;3143952;28;20114;-83
2021/12/29 04:28:30;;;;;;;0.22;0.15;;;;;;;14.54;60.37;97909.56;3143304;28;20663;-84
2021/12/29 04:30:01;;;;;;;0.10;0.10;;;;;;;14.52;60.43;97901.78;3141086;28;20649;-84
2021/12/29 04:31:34;;;;;;;0.10;0.10;;;;;;;14.54;60.44;97893.56;3140328;28;20040;-85
2021/12/29 04:33:05;;;;;;;0.10;0.10;;;;;;;14.53;60.44;97898.06;3141279;28;20048;-84
2021/12/29 04:34:36;;;;;;;0.30;0.20;;;;;;;14.55;60.47;97899.75;3141920;28;20463;-83
2021/12/29 04:36:09;;;;;;;0.10;0.10;;;;;;;14.54;60.28;97898.91;3142028;28;20392;-84
2021/12/29 04:37:41;;;;;;;0.10;0.10;;;;;;;14.54;60.53;97898.91;3141066;28;20143;-85
2021/12/29 04:39:13;;;;;;;0.10;0.10;;;;;;;14.53;60.42;97895.41;3141122;28;20052;-84
2021/12/29 04:40:45;;;;;;;0.30;0.20;;;;;;;14.52;60.41;97888.44;3140779;28;20052;-84
2021/12/29 04:42:17;;;;;;;0.10;0.10;;;;;;;14.53;60.35;97887.41;3140292;28;20053;-85
2021/12/29 04:43:49;;;;;;;0.20;0.20;;;;;;;14.53;60.53;97897.25;3140421;28;20279;-85
2021/12/29 04:45:21;;;;;;;0.20;0.20;;;;;;;14.52;60.33;97903.63;3141060;28;20459;-85
2021/12/29 04:46:55;;;;;;;0.00;0.00;;;;;;;14.52;60.31;97907.13;3140913;28;20569;-84
2021/12/29 04:48:30;;;;;;;0.10;0.10;;;;;;;14.53;60.37;97910.59;3139677;28;20072;-83
2021/12/29 04:50:03;;;;;;;0.20;0.20;;;;;;;14.51;60.56;97901.94;3140653;28;20573;-85
2021/12/29 04:51:36;;;;;;;0.25;0.13;;;;;;;14.51;60.48;97899.25;3139317;28;20044;-84
2021/12/29 04:53:09;;;;;;;0.03;0.03;;;;;;;14.51;60.47;97888.59;3140826;28;20064;-84
2021/12/29 04:54:41;;;;;;;0.10;0.10;;;;;;;14.49;60.58;97888.78;3139440;28;20079;-85
2021/12/29 04:56:15;;;;;;;0.00;0.00;;;;;;;14.50;60.39;97893.09;3140824;28;20045;-84
2021/12/29 04:57:47;;;;;;;0.40;0.20;;;;;;;14.49;60.30;97891.47;3138153;28;20079;-85
2021/12/29 04:59:19;;;;;;;0.30;0.20;;;;;;;14.49;60.48;97904.00;3140187;28;20044;-84
2021/12/29 05:00:52;;;;;;;0.10;0.10;;;;;;;14.49;60.34;97902.13;3141542;28;20057;-84
2021/12/29 05:02:24;;;;;;;0.10;0.10;;;;;;;14.48;60.56;97905.00;3139401;28;20045;-85
2021/12/29 05:03:56;;;;;;;0.10;0.10;;;;;;;14.50;60.75;97905.63;3141473;28;20044;-85
2021/12/29 05:05:41;;;;;;;0.20;0.20;;;;;;;14.50;60.36;97900.28;3139496;28;20053;-83
2021/12/29 05:08:59;;;;;;;0.10;0.10;;;;;;;14.54;60.52;97896.22;3102753;28;20046;-83
2021/12/29 05:10:31;;;;;;;0.30;0.30;;;;;;;14.57;60.27;97887.00;3140712;28;20047;-85
2021/12/29 05:12:05;;;;;;;0.20;0.15;;;;;;;14.60;60.39;97889.28;3153681;28;20301;-83
2021/12/29 05:13:40;;;;;;;0.00;0.00;;;;;;;14.61;60.45;97889.09;3142174;28;20040;-84
2021/12/29 05:15:12;;;;;;;0.20;0.15;;;;;;;14.67;60.30;97896.31;3140770;28;20048;-86
2021/12/29 05:16:44;;;;;;;0.08;0.08;;;;;;;14.71;60.30;97899.44;3148404;28;20048;-85
2021/12/29 05:18:14;;;;;;;0.32;0.10;;;;;;;14.77;60.41;97917.34;3149975;28;20059;-83
2021/12/29 05:19:46;;;;;;;0.25;0.25;;;;;;;14.81;60.13;97923.09;3145531;28;20447;-85
2021/12/29 05:21:18;;;;;;;0.10;0.10;;;;;;;14.84;60.14;97941.41;3139166;28;20045;-82
2021/12/29 05:22:49;;;;;;;0.00;0.00;;;;;;;14.89;60.39;97938.97;3134946;28;20049;-85
2021/12/29 05:24:21;;;;;;;0.20;0.10;;;;;;;14.93;60.09;97943.72;3138531;28;20414;-84
2021/12/29 05:25:55;;;;;;;0.13;0.13;;;;;;;14.98;60.02;97949.28;3140984;28;20052;-84
2021/12/29 05:27:29;;;;;;;0.20;0.20;;;;;;;15.04;60.10;97944.19;3141503;28;20056;-83
2021/12/29 05:29:00;;;;;;;0.28;0.20;;;;;;;15.05;60.17;97949.34;3140441;28;20512;-82
2021/12/29 05:30:32;;;;;;;0.10;0.10;;;;;;;15.09;59.97;97947.91;3141075;28;20049;-83
2021/12/29 05:32:06;;;;;;;0.20;0.20;;;;;;;15.13;60.11;97945.69;3140902;28;20068;-84
2021/12/29 05:33:38;;;;;;;0.10;0.10;;;;;;;15.15;60.10;97956.97;3140505;28;20351;-85
2021/12/29 05:35:11;;;;;;;0.15;0.15;;;;;;;15.18;59.98;97960.09;3140034;28;20494;-86
2021/12/29 05:36:43;;;;;;;0.10;0.10;;;;;;;15.21;60.10;97961.56;3140506;28;20056;-83
2021/12/29 05:38:15;;;;;;;0.10;0.10;;;;;;;15.24;60.00;97965.66;3139943;28;20055;-83
2021/12/29 05:39:46;;;;;;;0.30;0.10;;;;;;;15.26;59.83;97961.75;3140053;28;20048;-86
2021/12/29 05:41:18;;;;;;;0.10;0.10;;;;;;;15.27;59.90;97960.75;3140414;28;20090;-84
2021/12/29 05:42:52;;;;;;;0.10;0.10;;;;;;;15.30;59.85;97957.69;3140538;28;20044;-85
2021/12/29 05:44:24;;;;;;;0.20;0.20;;;;;;;15.32;59.99;97966.34;3138890;28;20441;-85
2021/12/29 05:45:56;;;;;;;0.30;0.10;;;;;;;15.36;59.89;97966.75;3140190;28;20408;-84
2021/12/29 05:47:27;;;;;;;0.00;0.00;;;;;;;15.36;59.79;97972.91;3140446;28;20099;-85
2021/12/29 05:48:59;;;;;;;0.10;0.10;;;;;;;15.38;59.72;97976.22;3141759;28;20041;-84
2021/12/29 05:50:33;;;;;;;0.20;0.10;;;;;;;15.41;59.93;97969.66;3140794;28;20044;-85
2021/12/29 05:52:05;;;;;;;0.10;0.10;;;;;;;15.42;59.87;97961.41;3140709;28;20075;-85
2021/12/29 05:53:37;;;;;;;0.10;0.10;;;;;;;15.44;59.68;97955.06;3139005;28;20032;-85
2021/12/29 05:55:10;;;;;;;0.00;0.00;;;;;;;15.44;59.84;97953.22;3140527;28;20113;-85
2021/12/29 05:56:42;;;;;;;0.20;0.10;;;;;;;15.46;59.73;97955.69;3138819;28;20040;-86
2021/12/29 05:58:16;;;;;;;0.10;0.10;;;;;;;15.47;59.86;97960.00;3147458;28;20082;-86
2021/12/29 05:59:48;;;;;;;0.10;0.10;;;;;;;15.48;59.80;97959.81;3139268;28;20044;-83
2021/12/29 06:01:19;;;;;;;0.08;0.08;;;;;;;15.49;59.64;97963.28;3139202;28;20041;-85
2021/12/29 06:02:52;;;;;;;0.10;0.10;;;;;;;15.49;59.83;97960.63;3138769;28;20189;-85
2021/12/29 06:04:23;;;;;;;0.20;0.10;;;;;;;15.50;59.75;97956.94;3134660;28;20169;-85
2021/12/29 06:05:55;;;;;;;1.02;0.17;;;;;;;15.51;59.82;97950.56;3137741;28;20642;-83
2021/12/29 06:07:27;;;;;;;0.20;0.20;;;;;;;15.51;59.54;97958.56;3141852;28;20157;-85
2021/12/29 06:08:59;;;;;;;0.10;0.10;;;;;;;15.53;59.67;97957.34;3142015;28;20089;-83
2021/12/29 06:10:31;;;;;;;0.30;0.30;;;;;;;15.52;59.54;97966.41;3140289;28;20044;-85
2021/12/29 06:12:04;;;;;;;0.17;0.17;;;;;;;15.53;59.68;97962.69;3141954;28;20055;-82
2021/12/29 06:13:37;;;;;;;0.30;0.30;;;;;;;15.54;59.74;97958.19;3140821;28;20044;-85
2021/12/29 06:15:10;;;;;;;0.10;0.10;;;;;;;15.56;59.55;97961.47;3141951;28;20348;-83
2021/12/29 06:16:42;;;;;;;0.10;0.10;;;;;;;15.56;59.59;97959.63;3139940;28;20075;-83
2021/12/29 06:18:14;;;;;;;0.10;0.10;;;;;;;15.58;59.52;97956.78;3140068;28;20117;-85
2021/12/29 06:19:46;;;;;;;0.55;0.10;;;;;;;15.60;59.73;97952.03;3141935;28;20044;-85
2021/12/29 06:21:17;;;;;;;0.10;0.10;;;;;;;15.62;59.66;97955.31;3142271;28;20550;-85
2021/12/29 06:22:49;;;;;;;0.15;0.10;;;;;;;15.64;59.56;97961.31;3141959;28;20072;-84
2021/12/29 06:24:21;;;;;;;0.20;0.20;;;;;;;15.66;59.50;97961.94;3140420;28;20503;-85
2021/12/29 06:25:53;;;;;;;0.28;0.10;;;;;;;15.67;59.56;97960.91;3141725;28;20045;-85
2021/12/29 06:27:25;;;;;;;0.13;0.13;;;;;;;15.68;59.51;97965.25;3128395;28;20078;-86
2021/12/29 06:28:59;;;;;;;0.05;0.05;;;;;;;15.69;59.52;97974.94;3142292;28;20420;-84
2021/12/29 06:30:31;;;;;;;0.22;0.10;;;;;;;15.71;59.47;97980.06;3141084;28;20049;-84
2021/12/29 06:32:03;;;;;;;0.25;0.22;;;;;;;15.73;59.43;97984.19;3140472;28;20291;-85
2021/12/29 06:33:35;;;;;;;0.30;0.30;;;;;;;15.75;59.33;97981.31;3149207;28;20044;-86
2021/12/29 06:35:09;;;;;;;0.43;0.10;;;;;;;15.75;59.54;97976.78;3141075;28;20059;-82
2021/12/29 06:36:41;;;;;;;0.40;0.20;;;;;;;15.76;59.55;97973.09;3142593;28;20040;-85
2021/12/29 06:38:13;;;;;;;0.00;0.00;;;;;;;15.78;59.30;97981.75;3140831;28;20045;-84
2021/12/29 06:39:46;;;;;;;0.10;0.10;;;;;;;15.80;59.54;97977.03;3141531;28;20040;-85
2021/12/29 06:41:18;;;;;;;0.30;0.30;;;;;;;15.81;59.47;97976.00;3140318;28;20036;-85
2021/12/29 06:42:50;;;;;;;0.10;0.10;;;;;;;15.81;59.23;97967.16;3148106;28;20051;-83
2021/12/29 06:44:23;;;;;;;0.10;0.10;;;;;;;15.85;59.32;97971.91;3141047;28;20037;-85
2021/12/29 06:45:55;;;;;;;0.10;0.10;;;;;;;15.86;59.37;97967.38;3145848;28;20252;-81
2021/12/29 06:47:27;;;;;;;0.25;0.20;;;;;;;15.87;59.39;97969.00;3153930;28;20047;-83
2021/12/29 06:48:59;;;;;;;0.10;0.08;;;;;;;15.89;59.27;97974.16;3144656;28;20044;-84
2021/12/29 06:50:31;;;;;;;0.20;0.10;;;;;;;15.91;59.38;97977.44;3141460;28;20045;-86
2021/12/29 06:52:05;;;;;;;0.38;0.20;;;;;;;15.92;59.33;97968.41;3139416;28;20094;-85
2021/12/29 06:53:37;;;;;;;0.22;0.10;;;;;;;15.94;59.27;97955.66;3146047;28;20545;-83
2021/12/29 06:55:09;;;;;;;0.47;0.20;;;;;;;15.96;59.21;97962.44;3144713;28;20048;-83
2021/12/29 06:56:40;;;;;;;0.15;0.15;;;;;;;15.99;59.20;97972.75;3142060;28;20112;-85
2021/12/29 06:58:12;;;;;;;0.32;0.30;;;;;;;16.01;59.35;97975.22;3136917;28;20061;-85
2021/12/29 06:59:45;;;;;;;0.45;0.00;;;;;;;16.02;59.23;97967.00;3139959;28;20182;-83
2021/12/29 07:01:18;;;;;;;0.10;0.10;;;;;;;16.03;59.28;97968.63;3137348;28;20039;-82
2021/12/29 07:02:50;;;;;;;0.17;0.10;;;;;;;16.05;59.20;97963.09;3139529;28;20036;-85
2021/12/29 07:04:23;;;;;;;0.20;0.20;;;;;;;16.06;59.26;97972.75;3133749;28;20053;-82
2021/12/29 07:05:55;;;;;;;0.73;0.20;;;;;;;16.08;59.37;97976.06;3130680;28;20094;-86
2021/12/29 07:07:27;;;;;;;0.32;0.20;;;;;;;16.08;59.27;97984.91;3139111;28;20120;-83
2021/12/29 07:08:59;;;;;;;0.20;0.10;;;;;;;16.10;59.38;97984.69;3131382;28;20419;-83
2021/12/29 07:10:31;;;;;;;0.65;0.20;;;;;;;16.12;59.26;97992.53;3144909;28;20119;-85
2021/12/29 07:12:03;;;;;;;0.30;0.10;;;;;;;16.13;59.11;97994.16;3148749;28;20048;-83
2021/12/29 07:13:35;;;;;;;0.20;0.10;;;;;;;16.13;59.31;97994.16;3139890;28;20051;-85
2021/12/29 07:15:09;;;;;;;1.67;0.10;;;;;;;16.14;59.17;97988.63;3136648;28;20057;-85
2021/12/29 07:16:44;;;;;;;0.08;0.08;;;;;;;16.15;59.29;97997.47;3151447;28;20097;-84
2021/12/29 07:18:16;;;;;;;0.50;0.10;;;;;;;16.17;59.14;98004.25;3149308;28;21012;-85
2021/12/29 07:19:48;;;;;;;0.03;0.03;;;;;;;16.17;59.16;98004.25;3151056;28;20047;-82
2021/12/29 07:21:20;;;;;;;0.10;0.10;;;;;;;16.16;59.09;98005.31;3151297;28;20279;-81